createdAt,value
2022-08-04T00:01:48.654Z,56.46
2022-08-04T00:04:41.692Z,54.12
2022-08-04T00:07:42.573Z,54.52
2022-08-04T00:10:17.511Z,56.70
2022-08-04T00:12:52.291Z,57.25
2022-08-04T00:15:21.278Z,58.50
2022-08-04T00:18:01.042Z,59.76
2022-08-04T00:20:40.979Z,67.21
2022-08-04T00:23:09.717Z,68.19
2022-08-04T00:25:41.632Z,61.97
2022-08-04T00:28:09.444Z,55.73
2022-08-04T00:30:37.845Z,54.08
2022-08-04T00:33:07.087Z,55.80
2022-08-04T00:35:36.229Z,56.54
2022-08-04T00:38:05.297Z,57.38
2022-08-04T00:40:48.207Z,58.90
2022-08-04T00:43:34.858Z,59.46
2022-08-04T00:46:55.333Z,60.58
2022-08-04T00:49:53.597Z,69.83
2022-08-04T00:52:47.294Z,66.81
2022-08-04T00:56:22.072Z,60.86
2022-08-04T00:59:20.990Z,53.20
2022-08-04T01:02:07.421Z,54.90
2022-08-04T01:05:13.732Z,56.28
2022-08-04T01:07:59.484Z,57.55
2022-08-04T01:11:04.395Z,58.97
2022-08-04T01:14:11.984Z,62.06
2022-08-04T01:16:52.436Z,67.42
2022-08-04T01:20:08.845Z,62.14
2022-08-04T01:23:14.745Z,54.82
2022-08-04T01:26:43.471Z,55.34
2022-08-04T01:29:13.590Z,56.17
2022-08-04T01:32:02.419Z,58.17
2022-08-04T01:34:42.804Z,59.51
2022-08-04T01:37:52.545Z,64.90
2022-08-04T01:40:22.520Z,65.52
2022-08-04T01:42:53.871Z,58.82
2022-08-04T01:45:25.248Z,53.94
2022-08-04T01:47:56.649Z,54.50
2022-08-04T01:50:28.787Z,57.98
2022-08-04T01:52:56.820Z,58.82
2022-08-04T01:55:54.330Z,60.11
2022-08-04T01:58:19.987Z,60.34
2022-08-04T02:01:17.200Z,67.28
2022-08-04T02:04:19.909Z,66.39
2022-08-04T02:06:58.910Z,58.61
2022-08-04T02:09:35.430Z,53.52
2022-08-04T02:12:48.978Z,54.42
2022-08-04T02:16:23.242Z,57.20
2022-08-04T02:19:42.260Z,57.89
2022-08-04T02:22:18.050Z,69.97
2022-08-04T02:25:08.955Z,64.78
2022-08-04T02:28:38.267Z,61.01
2022-08-04T02:31:19.755Z,53.80
2022-08-04T02:34:21.369Z,54.66
2022-08-04T02:36:52.440Z,55.99
2022-08-04T02:39:22.727Z,59.78
2022-08-04T02:41:53.219Z,66.99
2022-08-04T02:44:24.100Z,67.63
2022-08-04T02:46:54.565Z,61.45
2022-08-04T02:49:24.366Z,55.98
2022-08-04T02:51:58.087Z,54.45
2022-08-04T02:54:33.616Z,56.28
2022-08-04T02:57:08.577Z,58.57
2022-08-04T03:00:24.073Z,59.20
2022-08-04T03:03:28.142Z,68.46
2022-08-04T03:06:54.759Z,62.45
2022-08-04T03:09:56.280Z,55.32
2022-08-04T03:12:48.862Z,54.23
2022-08-04T03:15:53.516Z,56.60
2022-08-04T03:19:05.254Z,59.71
2022-08-04T03:21:47.982Z,67.53
2022-08-04T03:24:30.621Z,64.51
2022-08-04T03:27:34.641Z,60.92
2022-08-04T03:30:06.822Z,54.54
2022-08-04T03:33:24.722Z,55.08
2022-08-04T03:36:17.742Z,56.64
2022-08-04T03:39:10.130Z,57.39
2022-08-04T03:42:11.127Z,59.99
2022-08-04T03:45:23.019Z,69.45
2022-08-04T03:48:13.846Z,65.70
2022-08-04T03:51:32.459Z,58.44
2022-08-04T03:54:50.237Z,53.32
2022-08-04T03:57:56.695Z,55.17
2022-08-04T04:01:00.518Z,57.50
2022-08-04T04:03:59.508Z,58.72
2022-08-04T04:07:24.447Z,69.02
2022-08-04T04:10:28.865Z,65.09
2022-08-04T04:13:34.702Z,57.51
2022-08-04T04:16:37.647Z,53.23
2022-08-04T04:19:34.977Z,55.08
2022-08-04T04:22:31.596Z,56.74
2022-08-04T04:25:11.414Z,59.01
2022-08-04T04:28:45.056Z,68.26
2022-08-04T04:31:40.518Z,65.23
2022-08-04T04:34:10.851Z,61.71
2022-08-04T04:36:58.401Z,54.64
2022-08-04T04:39:54.425Z,53.60
2022-08-04T04:43:51.659Z,55.04
2022-08-04T04:46:21.400Z,58.67
2022-08-04T04:49:16.582Z,64.66
2022-08-04T04:52:05.549Z,65.95
2022-08-04T04:54:58.869Z,61.05
2022-08-04T04:57:53.839Z,54.31
2022-08-04T05:01:05.273Z,54.14
2022-08-04T05:03:45.111Z,56.66
2022-08-04T05:06:36.888Z,58.54
2022-08-04T05:09:37.631Z,60.89
2022-08-04T05:14:31.470Z,69.32
2022-08-04T05:15:46.688Z,62.99
2022-08-04T05:18:27.082Z,56.67
2022-08-04T05:21:09.038Z,55.24
2022-08-04T05:23:48.527Z,57.54
2022-08-04T05:26:23.528Z,60.02
2022-08-04T05:28:59.593Z,65.66
2022-08-04T05:31:34.873Z,63.59
2022-08-04T05:34:26.241Z,57.18
2022-08-04T05:37:01.583Z,56.23
2022-08-04T05:39:39.118Z,57.17
2022-08-04T05:42:09.899Z,60.01
2022-08-04T05:44:39.983Z,60.99
2022-08-04T05:47:13.122Z,66.19
2022-08-04T05:49:42.612Z,64.60
2022-08-04T05:52:12.673Z,60.08
2022-08-04T05:54:42.302Z,54.86
2022-08-04T05:57:11.472Z,53.78
2022-08-04T05:59:46.621Z,54.66
2022-08-04T06:02:17.872Z,58.34
2022-08-04T06:04:51.196Z,60.04
2022-08-04T06:07:19.689Z,61.18
2022-08-04T06:09:48.047Z,63.26
2022-08-04T06:12:26.915Z,62.90
2022-08-04T06:15:00.159Z,56.46
2022-08-04T06:19:57.099Z,54.62
2022-08-04T06:20:36.416Z,57.36
2022-08-04T06:23:10.478Z,57.75
2022-08-04T06:25:47.736Z,58.69
2022-08-04T06:28:18.972Z,61.15
2022-08-04T06:30:50.917Z,64.58
2022-08-04T06:33:54.959Z,63.44
2022-08-04T06:36:24.318Z,54.73
2022-08-04T06:38:58.553Z,55.78
2022-08-04T06:41:29.986Z,56.99
2022-08-04T06:44:03.426Z,57.96
2022-08-04T06:46:34.448Z,60.55
2022-08-04T06:49:04.769Z,60.81
2022-08-04T06:51:42.371Z,61.92
2022-08-04T06:54:16.680Z,62.99
2022-08-04T06:56:45.680Z,62.07
2022-08-04T06:59:16.680Z,57.39
2022-08-04T07:01:47.239Z,55.91
2022-08-04T07:04:15.753Z,57.44
2022-08-04T07:06:43.843Z,58.16
2022-08-04T07:09:12.237Z,59.95
2022-08-04T07:11:44.602Z,61.62
2022-08-04T07:14:14.901Z,62.03
2022-08-04T07:16:43.289Z,63.36
2022-08-04T07:19:13.751Z,62.32
2022-08-04T07:22:17.924Z,55.07
2022-08-04T07:24:37.818Z,54.94
2022-08-04T07:27:09.166Z,55.46
2022-08-04T07:29:38.812Z,55.89
2022-08-04T07:32:08.393Z,56.97
2022-08-04T07:34:39.179Z,57.34
2022-08-04T07:37:07.331Z,58.24
2022-08-04T07:39:47.974Z,58.09
2022-08-04T07:42:21.331Z,58.69
2022-08-04T07:44:49.422Z,59.00
2022-08-04T07:47:19.205Z,58.54
2022-08-04T07:49:54.827Z,58.31
2022-08-04T07:52:27.116Z,58.09
2022-08-04T07:54:55.672Z,57.76
2022-08-04T07:57:40.205Z,57.77
2022-08-04T08:00:14.255Z,57.85
2022-08-04T08:02:45.736Z,58.24
2022-08-04T08:05:18.274Z,58.55
2022-08-04T08:07:50.488Z,59.00
2022-08-04T08:10:24.409Z,59.04
2022-08-04T08:12:53.728Z,59.47
2022-08-04T08:15:23.262Z,59.49
2022-08-04T08:17:57.989Z,59.19
2022-08-04T08:20:32.478Z,58.68
2022-08-04T08:23:03.191Z,57.85
2022-08-04T08:25:33.612Z,58.34
2022-08-04T08:28:05.123Z,57.89
2022-08-04T08:30:34.149Z,57.45
2022-08-04T08:33:06.864Z,57.36
2022-08-04T08:35:53.857Z,57.25
2022-08-04T08:39:00.555Z,56.08
2022-08-04T08:42:03.053Z,55.90
2022-08-04T08:44:59.267Z,55.35
2022-08-04T08:48:00.040Z,55.17
2022-08-04T08:51:14.927Z,54.65
2022-08-04T08:54:28.011Z,54.32
2022-08-04T08:57:28.025Z,53.57
2022-08-04T09:00:32.699Z,53.01
2022-08-04T09:03:57.523Z,52.35
2022-08-04T09:06:47.825Z,51.84
2022-08-04T09:10:20.553Z,50.68
2022-08-04T09:13:02.666Z,50.55
2022-08-04T09:16:03.234Z,50.98
2022-08-04T09:19:37.531Z,51.07
2022-08-04T09:22:18.652Z,52.37
2022-08-04T09:25:12.378Z,52.66
2022-08-04T09:27:42.590Z,53.26
2022-08-04T09:30:13.473Z,53.00
2022-08-04T09:33:45.652Z,53.02
2022-08-04T09:36:53.698Z,51.89
2022-08-04T09:39:33.731Z,51.52
2022-08-04T09:42:33.704Z,51.83
2022-08-04T09:45:39.153Z,51.24
2022-08-04T09:49:07.790Z,51.71
2022-08-04T09:51:57.859Z,51.16
2022-08-04T09:54:43.294Z,50.84
2022-08-04T09:57:34.578Z,50.56
2022-08-04T10:00:13.729Z,51.46
2022-08-04T10:02:49.609Z,51.76
2022-08-04T10:05:25.541Z,50.09
2022-08-04T10:08:51.213Z,49.39
2022-08-04T10:11:54.569Z,49.18
2022-08-04T10:14:46.710Z,48.74
2022-08-04T10:17:34.819Z,47.53
2022-08-04T10:20:46.509Z,47.75
2022-08-04T10:23:56.201Z,48.32
2022-08-04T10:26:45.633Z,48.37
2022-08-04T10:29:32.166Z,48.96
2022-08-04T10:32:45.205Z,47.83
2022-08-04T10:35:23.745Z,48.11
2022-08-04T10:38:15.959Z,49.14
2022-08-04T10:40:54.950Z,47.97
2022-08-04T10:44:09.678Z,48.36
2022-08-04T10:46:50.025Z,48.40
2022-08-04T10:49:35.279Z,49.21
2022-08-04T10:52:22.795Z,49.66
2022-08-04T10:55:18.611Z,49.68
2022-08-04T10:58:02.356Z,49.85
2022-08-04T11:00:35.593Z,50.62
2022-08-04T11:03:26.932Z,51.13
2022-08-04T11:06:03.661Z,51.37
2022-08-04T11:08:45.312Z,52.31
2022-08-04T11:12:00.584Z,52.41
2022-08-04T11:15:07.508Z,52.84
2022-08-04T11:17:45.874Z,53.79
2022-08-04T11:20:36.997Z,54.50
2022-08-04T11:23:18.418Z,54.86
2022-08-04T11:26:21.513Z,55.64
2022-08-04T11:29:11.748Z,56.12
2022-08-04T11:31:49.770Z,56.85
2022-08-04T11:34:25.042Z,56.76
2022-08-04T11:37:14.486Z,56.78
2022-08-04T11:40:04.688Z,57.31
2022-08-04T11:42:41.540Z,58.16
2022-08-04T11:45:20.126Z,59.23
2022-08-04T11:48:42.326Z,60.06
2022-08-04T11:51:10.364Z,61.24
2022-08-04T11:53:44.298Z,61.81
2022-08-04T11:56:36.928Z,62.54
2022-08-04T11:59:10.342Z,59.66
2022-08-04T12:02:20.833Z,58.71
2022-08-04T12:05:02.352Z,61.00
2022-08-04T12:07:49.949Z,63.11
2022-08-04T12:10:51.611Z,60.87
2022-08-04T12:13:36.439Z,59.49
2022-08-04T12:16:22.838Z,61.82
2022-08-04T12:19:03.253Z,62.26
2022-08-04T12:21:53.238Z,60.21
2022-08-04T12:24:37.701Z,59.83
2022-08-04T12:27:17.074Z,62.49
2022-08-04T12:30:59.069Z,62.09
2022-08-04T12:32:59.605Z,60.85
2022-08-04T12:36:11.417Z,61.74
2022-08-04T12:39:01.852Z,62.05
2022-08-04T12:41:39.637Z,61.62
2022-08-04T12:44:36.448Z,61.63
2022-08-04T12:47:28.487Z,61.10
2022-08-04T12:50:02.924Z,60.09
2022-08-04T12:55:35.437Z,60.34
2022-08-04T12:58:13.267Z,63.30
2022-08-04T13:00:53.427Z,62.74
2022-08-04T13:03:27.627Z,60.77
2022-08-04T13:05:56.432Z,56.93
2022-08-04T13:08:24.335Z,58.95
2022-08-04T13:10:58.745Z,61.29
2022-08-04T13:13:31.473Z,64.09
2022-08-04T13:16:08.496Z,61.15
2022-08-04T13:18:47.858Z,59.27
2022-08-04T13:21:22.739Z,59.32
2022-08-04T13:24:21.280Z,62.96
2022-08-04T13:27:10.780Z,61.81
2022-08-04T13:30:00.536Z,59.13
2022-08-04T13:32:34.536Z,60.07
2022-08-04T13:35:04.714Z,62.00
2022-08-04T13:37:37.052Z,63.54
2022-08-04T13:40:10.189Z,61.33
2022-08-04T13:42:41.818Z,59.12
2022-08-04T13:45:11.683Z,60.48
2022-08-04T13:47:42.599Z,62.96
2022-08-04T13:50:33.516Z,61.64
2022-08-04T13:53:03.946Z,59.46
2022-08-04T13:55:36.892Z,59.82
2022-08-04T13:58:20.434Z,62.20
2022-08-04T14:00:58.907Z,62.77
2022-08-04T14:03:54.082Z,60.31
2022-08-04T14:06:31.751Z,59.35
2022-08-04T14:09:02.247Z,61.01
2022-08-04T14:12:07.101Z,62.87
2022-08-04T14:14:36.315Z,60.66
2022-08-04T14:17:19.803Z,58.29
2022-08-04T14:19:58.746Z,59.66
2022-08-04T14:22:26.635Z,62.79
2022-08-04T14:25:16.047Z,61.72
2022-08-04T14:27:47.214Z,58.44
2022-08-04T14:30:37.985Z,59.31
2022-08-04T14:34:02.571Z,62.34
2022-08-04T14:36:03.933Z,61.89
2022-08-04T14:38:58.602Z,59.04
2022-08-04T14:41:43.881Z,60.60
2022-08-04T14:44:11.588Z,62.58
2022-08-04T14:46:54.572Z,62.95
2022-08-04T14:49:23.231Z,60.38
2022-08-04T14:52:01.717Z,58.14
2022-08-04T14:54:31.957Z,57.94
2022-08-04T14:57:08.068Z,61.33
2022-08-04T14:59:59.444Z,64.59
2022-08-04T15:02:32.504Z,62.40
2022-08-04T15:06:00.034Z,60.15
2022-08-04T15:07:53.220Z,57.30
2022-08-04T15:10:21.479Z,60.94
2022-08-04T15:12:50.266Z,64.22
2022-08-04T15:15:35.987Z,63.01
2022-08-04T15:18:11.700Z,61.26
2022-08-04T15:20:42.491Z,57.79
2022-08-04T15:23:10.918Z,58.82
2022-08-04T15:25:53.746Z,64.50
2022-08-04T15:28:27.576Z,64.26
2022-08-04T15:30:56.008Z,61.57
2022-08-04T15:33:33.870Z,60.84
2022-08-04T15:36:27.320Z,57.02
2022-08-04T15:39:07.146Z,57.61
2022-08-04T15:42:15.008Z,60.39
2022-08-04T15:44:51.397Z,64.93
2022-08-04T15:47:19.400Z,62.09
2022-08-04T15:50:08.047Z,60.19
2022-08-04T15:53:12.314Z,59.19
2022-08-04T15:55:44.181Z,60.95
2022-08-04T15:58:14.470Z,65.97
2022-08-04T16:00:48.039Z,64.28
2022-08-04T16:03:54.275Z,60.55
2022-08-04T16:06:20.254Z,60.01
2022-08-04T16:08:52.596Z,60.32
2022-08-04T16:11:31.449Z,58.74
2022-08-04T16:13:59.982Z,58.35
2022-08-04T16:16:47.064Z,59.78
2022-08-04T16:19:47.666Z,63.55
2022-08-04T16:22:40.690Z,62.53
2022-08-04T16:25:09.601Z,60.03
2022-08-04T16:27:42.554Z,55.71
2022-08-04T16:30:15.193Z,57.20
2022-08-04T16:32:48.834Z,60.00
2022-08-04T16:35:28.673Z,63.80
2022-08-04T16:38:17.506Z,64.35
2022-08-04T16:41:02.362Z,61.24
2022-08-04T16:43:32.640Z,56.66
2022-08-04T16:46:05.157Z,57.36
2022-08-04T16:48:35.399Z,58.66
2022-08-04T16:51:09.904Z,62.72
2022-08-04T16:54:02.845Z,63.42
2022-08-04T16:56:34.665Z,61.32
2022-08-04T16:59:08.605Z,58.22
2022-08-04T17:01:38.323Z,58.19
2022-08-04T17:04:07.201Z,61.50
2022-08-04T17:06:43.072Z,64.53
2022-08-04T17:09:15.192Z,62.51
2022-08-04T17:11:46.429Z,60.08
2022-08-04T17:14:14.344Z,57.03
2022-08-04T17:16:43.333Z,60.27
2022-08-04T17:19:25.179Z,63.44
2022-08-04T17:22:10.068Z,63.75
2022-08-04T17:24:41.148Z,60.67
2022-08-04T17:28:20.026Z,57.24
2022-08-04T17:29:59.042Z,58.58
2022-08-04T17:32:27.611Z,61.76
2022-08-04T17:35:02.253Z,64.64
2022-08-04T17:37:38.947Z,63.04
2022-08-04T17:40:18.502Z,59.32
2022-08-04T17:44:03.149Z,58.70
2022-08-04T17:46:29.201Z,62.21
2022-08-04T17:49:02.249Z,66.40
2022-08-04T17:52:04.179Z,63.04
2022-08-04T17:54:40.378Z,61.05
2022-08-04T17:57:21.316Z,56.77
2022-08-04T17:59:58.894Z,56.60
2022-08-04T18:02:33.421Z,59.52
2022-08-04T18:05:07.876Z,63.95
2022-08-04T18:08:39.480Z,63.23
2022-08-04T18:10:51.889Z,60.54
2022-08-04T18:13:26.935Z,57.35
2022-08-04T18:16:22.406Z,58.67
2022-08-04T18:19:15.604Z,62.73
2022-08-04T18:21:59.576Z,65.41
2022-08-04T18:24:35.726Z,62.35
2022-08-04T18:27:24.466Z,60.50
2022-08-04T18:30:33.486Z,55.95
2022-08-04T18:33:24.444Z,55.56
2022-08-04T18:36:33.426Z,57.23
2022-08-04T18:38:23.623Z,61.20
2022-08-04T18:40:54.759Z,67.88
2022-08-04T18:43:27.897Z,66.69
2022-08-04T18:45:59.555Z,63.16
2022-08-04T18:48:36.372Z,59.42
2022-08-04T18:51:23.142Z,56.40
2022-08-04T18:53:58.712Z,58.93
2022-08-04T18:56:32.544Z,61.18
2022-08-04T18:59:04.636Z,65.15
2022-08-04T19:02:13.303Z,63.70
2022-08-04T19:04:33.456Z,61.19
2022-08-04T19:07:28.739Z,57.61
2022-08-04T19:09:58.062Z,56.59
2022-08-04T19:12:28.638Z,60.54
2022-08-04T19:15:09.045Z,64.76
2022-08-04T19:20:29.838Z,61.31
2022-08-04T19:24:29.358Z,56.86
2022-08-04T19:26:02.513Z,56.93
2022-08-04T19:28:36.894Z,59.87
2022-08-04T19:31:10.261Z,66.20
2022-08-04T19:33:58.532Z,64.74
2022-08-04T19:36:31.043Z,60.80
2022-08-04T19:39:02.639Z,56.28
2022-08-04T19:41:33.913Z,56.52
2022-08-04T19:44:23.578Z,58.34
2022-08-04T19:46:51.966Z,64.40
2022-08-04T19:50:03.785Z,64.20
2022-08-04T19:52:08.713Z,61.52
2022-08-04T19:54:40.766Z,57.55
2022-08-04T19:57:09.061Z,57.68
2022-08-04T19:59:48.295Z,61.29
2022-08-04T20:02:16.750Z,65.76
2022-08-04T20:04:44.437Z,65.15
2022-08-04T20:07:23.799Z,62.41
2022-08-04T20:09:53.376Z,59.45
2022-08-04T20:12:21.931Z,55.48
2022-08-04T20:14:49.721Z,56.62
2022-08-04T20:17:19.386Z,58.64
2022-08-04T20:20:08.509Z,64.95
2022-08-04T20:22:50.936Z,65.18
2022-08-04T20:25:36.343Z,62.07
2022-08-04T20:28:05.539Z,60.18
2022-08-04T20:30:33.618Z,56.55
2022-08-04T20:36:04.973Z,58.49
2022-08-04T20:38:34.175Z,61.85
2022-08-04T20:41:03.580Z,67.29
2022-08-04T20:43:31.625Z,64.85
2022-08-04T20:45:59.917Z,61.76
2022-08-04T20:48:33.833Z,60.25
2022-08-04T20:51:02.113Z,57.27
2022-08-04T20:53:32.623Z,57.53
2022-08-04T20:56:19.000Z,59.84
2022-08-04T20:59:01.248Z,66.57
2022-08-04T21:01:35.522Z,66.90
2022-08-04T21:04:28.121Z,62.98
2022-08-04T21:07:05.647Z,59.46
2022-08-04T21:09:38.110Z,56.04
2022-08-04T21:12:27.901Z,58.74
2022-08-04T21:15:01.538Z,59.21
2022-08-04T21:17:57.660Z,66.45
2022-08-04T21:20:29.717Z,65.52
2022-08-04T21:23:02.190Z,60.93
2022-08-04T21:25:39.121Z,57.04
2022-08-04T21:28:12.539Z,56.30
2022-08-04T21:30:52.674Z,58.59
2022-08-04T21:33:49.836Z,64.66
2022-08-04T21:36:13.597Z,64.77
2022-08-04T21:38:51.110Z,60.82
2022-08-04T21:41:24.984Z,56.24
2022-08-04T21:43:56.120Z,57.14
2022-08-04T21:46:24.187Z,59.37
2022-08-04T21:48:52.020Z,65.73
2022-08-04T21:51:59.118Z,66.21
2022-08-04T21:56:59.708Z,56.66
2022-08-04T21:59:31.502Z,56.73
2022-08-04T22:02:01.469Z,59.47
2022-08-04T22:04:30.975Z,61.54
2022-08-04T22:07:02.962Z,67.92
2022-08-04T22:09:38.746Z,66.80
2022-08-04T22:12:11.916Z,62.41
2022-08-04T22:14:40.785Z,56.86
2022-08-04T22:17:13.675Z,55.75
2022-08-04T22:19:55.789Z,58.51
2022-08-04T22:22:28.995Z,60.71
2022-08-04T22:25:06.149Z,67.49
2022-08-04T22:28:01.096Z,65.42
2022-08-04T22:30:36.757Z,61.01
2022-08-04T22:33:08.848Z,56.21
2022-08-04T22:35:43.929Z,57.52
2022-08-04T22:38:28.981Z,59.68
2022-08-04T22:41:14.363Z,66.22
2022-08-04T22:43:43.570Z,64.19
2022-08-04T22:46:22.201Z,61.45
2022-08-04T22:48:51.334Z,56.85
2022-08-04T22:51:21.037Z,57.04
2022-08-04T22:53:51.071Z,58.93
2022-08-04T22:56:37.306Z,61.21
2022-08-04T22:59:06.712Z,69.55
2022-08-04T23:01:58.634Z,65.99
2022-08-04T23:04:26.950Z,61.49
2022-08-04T23:06:55.174Z,56.28
2022-08-04T23:09:49.395Z,55.54
2022-08-04T23:12:25.176Z,58.43
2022-08-04T23:14:58.726Z,65.45
2022-08-04T23:17:28.759Z,64.99
2022-08-04T23:19:59.178Z,61.77
2022-08-04T23:22:42.235Z,56.73
2022-08-04T23:25:15.957Z,56.47
2022-08-04T23:27:51.170Z,56.99
2022-08-04T23:30:29.839Z,60.48
2022-08-04T23:32:58.831Z,68.07
2022-08-04T23:35:27.152Z,65.38
2022-08-04T23:37:56.551Z,61.97
2022-08-04T23:40:32.625Z,58.74
2022-08-04T23:43:16.129Z,55.36
2022-08-04T23:46:03.896Z,56.02
2022-08-04T23:48:33.800Z,59.29
2022-08-04T23:51:14.710Z,67.52
2022-08-04T23:54:03.526Z,65.22
2022-08-04T23:56:34.395Z,61.81
2022-08-04T23:59:04.434Z,60.26
